createdAt,value
2022-09-13T00:02:09.694Z,100728.34
2022-09-13T00:04:36.193Z,100724.81
2022-09-13T00:07:02.603Z,100733.22
2022-09-13T00:09:29.785Z,100722.66
2022-09-13T00:11:56.129Z,100725.38
2022-09-13T00:14:22.449Z,100710.97
2022-09-13T00:16:48.894Z,100712.31
2022-09-13T00:19:15.214Z,100710.38
2022-09-13T00:21:41.900Z,100699.00
2022-09-13T00:24:08.424Z,100695.44
2022-09-13T00:26:34.937Z,100687.59
2022-09-13T00:29:01.198Z,100699.53
2022-09-13T00:31:27.975Z,100691.66
2022-09-13T00:33:54.455Z,100689.50
2022-09-13T00:36:20.964Z,100680.00
2022-09-13T00:38:47.236Z,100682.69
2022-09-13T00:41:13.562Z,100678.63
2022-09-13T00:43:39.870Z,100675.09
2022-09-13T00:46:06.406Z,100669.94
2022-09-13T00:48:32.889Z,100678.06
2022-09-13T00:50:59.206Z,100665.59
2022-09-13T00:53:25.476Z,100662.06
2022-09-13T00:55:51.767Z,100663.16
2022-09-13T00:58:18.042Z,100658.81
2022-09-13T01:00:44.616Z,100652.56
2022-09-13T01:03:11.001Z,100644.41
2022-09-13T01:05:38.863Z,100641.16
2022-09-13T01:08:05.186Z,100636.81
2022-09-13T01:10:36.618Z,100643.31
2022-09-13T01:13:03.177Z,100636.28
2022-09-13T01:15:29.812Z,100630.84
2022-09-13T01:17:56.158Z,100618.38
2022-09-13T01:20:22.931Z,100614.03
2022-09-13T01:22:49.257Z,100612.09
2022-09-13T01:25:15.743Z,100608.03
2022-09-13T01:27:42.102Z,100604.22
2022-09-13T01:30:08.555Z,100594.47
2022-09-13T01:32:34.838Z,100592.03
2022-09-13T01:35:01.830Z,100579.28
2022-09-13T01:37:28.253Z,100583.88
2022-09-13T01:39:54.674Z,100581.44
2022-09-13T01:42:20.950Z,100570.88
2022-09-13T01:44:47.294Z,100573.59
2022-09-13T01:47:13.882Z,100579.28
2022-09-13T01:49:40.225Z,100573.88
2022-09-13T01:52:06.501Z,100575.75
2022-09-13T01:54:32.749Z,100571.41
2022-09-13T01:56:59.134Z,100570.31
2022-09-13T01:59:25.604Z,100573.03
2022-09-13T02:01:51.994Z,100567.59
2022-09-13T02:04:18.460Z,100571.69
2022-09-13T02:06:44.827Z,100564.38
2022-09-13T02:09:11.725Z,100562.44
2022-09-13T02:11:37.995Z,100560.81
2022-09-13T02:14:04.322Z,100564.63
2022-09-13T02:16:31.858Z,100562.72
2022-09-13T02:18:58.210Z,100567.59
2022-09-13T02:21:25.262Z,100560.56
2022-09-13T02:23:52.045Z,100563.00
2022-09-13T02:26:18.301Z,100561.34
2022-09-13T02:28:44.670Z,100555.13
2022-09-13T02:31:10.991Z,100555.94
2022-09-13T02:33:37.592Z,100546.16
2022-09-13T02:36:03.969Z,100539.13
2022-09-13T02:38:30.993Z,100530.16
2022-09-13T02:40:57.484Z,100523.94
2022-09-13T02:43:24.152Z,100527.72
2022-09-13T02:45:50.867Z,100520.94
2022-09-13T02:48:17.239Z,100523.94
2022-09-13T02:50:43.892Z,100511.16
2022-09-13T02:53:10.219Z,100518.78
2022-09-13T02:55:36.581Z,100509.03
2022-09-13T02:58:02.830Z,100507.94
2022-09-13T03:00:29.124Z,100509.56
2022-09-13T03:02:55.494Z,100509.81
2022-09-13T03:05:21.958Z,100508.19
2022-09-13T03:07:48.328Z,100508.47
2022-09-13T03:10:14.618Z,100508.72
2022-09-13T03:12:41.005Z,100504.94
2022-09-13T03:15:07.294Z,100503.03
2022-09-13T03:17:33.690Z,100504.13
2022-09-13T03:20:00.012Z,100501.69
2022-09-13T03:22:26.379Z,100502.50
2022-09-13T03:24:52.692Z,100498.16
2022-09-13T03:27:18.977Z,100495.44
2022-09-13T03:29:45.260Z,100488.38
2022-09-13T03:32:11.628Z,100493.81
2022-09-13T03:34:38.086Z,100483.78
2022-09-13T03:37:04.584Z,100482.97
2022-09-13T03:39:31.080Z,100480.25
2022-09-13T03:41:57.337Z,100482.13
2022-09-13T03:44:23.691Z,100469.66
2022-09-13T03:46:49.982Z,100463.44
2022-09-13T03:49:16.270Z,100465.34
2022-09-13T03:51:42.904Z,100461.00
2022-09-13T03:54:09.594Z,100466.44
2022-09-13T03:56:35.949Z,100453.13
2022-09-13T03:59:02.390Z,100453.97
2022-09-13T04:01:28.719Z,100453.97
2022-09-13T04:03:57.026Z,100440.66
2022-09-13T04:06:23.559Z,100445.25
2022-09-13T04:08:49.976Z,100450.69
2022-09-13T04:11:16.472Z,100443.66
2022-09-13T04:13:42.749Z,100449.06
2022-09-13T04:16:09.218Z,100446.63
2022-09-13T04:18:35.770Z,100444.75
2022-09-13T04:21:02.014Z,100445.00
2022-09-13T04:23:28.432Z,100441.47
2022-09-13T04:25:54.712Z,100439.84
2022-09-13T04:28:20.970Z,100445.28
2022-09-13T04:30:49.920Z,100438.75
2022-09-13T04:33:16.327Z,100438.75
2022-09-13T04:35:42.761Z,100439.84
2022-09-13T04:38:09.298Z,100437.13
2022-09-13T04:40:35.778Z,100435.53
2022-09-13T04:43:02.036Z,100428.44
2022-09-13T04:45:28.346Z,100432.81
2022-09-13T04:47:54.601Z,100423.84
2022-09-13T04:50:21.021Z,100417.59
2022-09-13T04:52:47.543Z,100417.59
2022-09-13T04:55:13.821Z,100413.25
2022-09-13T04:57:40.106Z,100411.66
2022-09-13T05:00:06.786Z,100415.97
2022-09-13T05:02:33.337Z,100412.75
2022-09-13T05:04:59.604Z,100410.81
2022-09-13T05:07:25.942Z,100402.69
2022-09-13T05:09:52.349Z,100413.00
2022-09-13T05:12:18.657Z,100411.09
2022-09-13T05:14:44.975Z,100399.19
2022-09-13T05:17:11.491Z,100411.91
2022-09-13T05:19:37.838Z,100402.16
2022-09-13T05:22:04.126Z,100405.97
2022-09-13T05:24:30.529Z,100405.97
2022-09-13T05:26:56.940Z,100413.28
2022-09-13T05:29:23.304Z,100407.84
2022-09-13T05:31:50.075Z,100395.38
2022-09-13T05:34:16.553Z,100389.41
2022-09-13T05:36:42.902Z,100404.63
2022-09-13T05:41:55.805Z,100392.94
2022-09-13T05:44:22.055Z,100398.06
2022-09-13T05:46:48.400Z,100393.97
2022-09-13T05:49:14.822Z,100393.47
2022-09-13T05:51:41.271Z,100384.50
2022-09-13T05:54:07.520Z,100391.56
2022-09-13T05:56:33.802Z,100379.06
2022-09-13T05:59:00.174Z,100372.59
2022-09-13T06:01:26.709Z,100363.63
2022-09-13T06:03:53.330Z,100359.84
2022-09-13T06:06:19.646Z,100367.16
2022-09-13T06:08:46.131Z,100355.50
2022-09-13T06:11:12.446Z,100367.16
2022-09-13T06:13:38.718Z,100360.09
2022-09-13T06:16:05.113Z,100360.91
2022-09-13T06:18:31.704Z,100369.31
2022-09-13T06:20:58.330Z,100371.78
2022-09-13T06:23:25.135Z,100355.50
2022-09-13T06:25:51.500Z,100357.38
2022-09-13T06:28:17.820Z,100356.59
2022-09-13T06:30:44.922Z,100347.38
2022-09-13T06:33:11.212Z,100350.09
2022-09-13T06:35:37.550Z,100345.47
2022-09-13T06:38:03.894Z,100343.84
2022-09-13T06:42:56.712Z,100338.41
2022-09-13T06:45:23.015Z,100340.34
2022-09-13T06:47:49.329Z,100329.19
2022-09-13T06:50:15.689Z,100340.03
2022-09-13T06:52:41.926Z,100332.22
2022-09-13T06:55:12.093Z,100340.03
2022-09-13T06:57:39.127Z,100338.16
2022-09-13T07:00:05.517Z,100346.56
2022-09-13T07:02:31.862Z,100348.16
2022-09-13T07:04:58.210Z,100348.16
2022-09-13T07:07:24.730Z,100345.47
2022-09-13T07:09:51.102Z,100343.03
2022-09-13T07:12:20.467Z,100348.47
2022-09-13T07:14:47.473Z,100347.66
2022-09-13T07:17:13.773Z,100351.19
2022-09-13T07:19:40.086Z,100352.25
2022-09-13T07:22:06.447Z,100347.66
2022-09-13T07:24:32.789Z,100356.88
2022-09-13T07:26:59.158Z,100363.09
2022-09-13T07:29:25.720Z,100357.66
2022-09-13T07:31:52.086Z,100362.28
2022-09-13T07:34:18.399Z,100367.72
2022-09-13T07:36:44.741Z,100369.59
2022-09-13T07:39:15.656Z,100362.56
2022-09-13T07:41:43.800Z,100361.47
2022-09-13T07:44:10.239Z,100362.81
2022-09-13T07:46:36.595Z,100364.44
2022-09-13T07:49:03.006Z,100361.72
2022-09-13T07:51:29.434Z,100341.97
2022-09-13T07:53:57.545Z,100343.03
2022-09-13T07:56:26.281Z,100347.38
2022-09-13T07:58:52.675Z,100346.56
2022-09-13T08:01:19.060Z,100349.28
2022-09-13T08:03:45.608Z,100345.75
2022-09-13T08:06:11.868Z,100343.31
2022-09-13T08:08:38.342Z,100346.84
2022-09-13T08:11:04.638Z,100338.69
2022-09-13T08:13:30.906Z,100339.53
2022-09-13T08:15:57.791Z,100340.63
2022-09-13T08:18:24.118Z,100340.88
2022-09-13T08:20:50.446Z,100340.88
2022-09-13T08:23:16.912Z,100347.09
2022-09-13T08:25:43.227Z,100345.47
2022-09-13T08:28:09.504Z,100333.81
2022-09-13T08:30:35.803Z,100338.16
2022-09-13T08:33:02.198Z,100331.09
2022-09-13T08:35:28.517Z,100337.63
2022-09-13T08:37:54.924Z,100333.03
2022-09-13T08:40:21.842Z,100331.41
2022-09-13T08:42:48.210Z,100342.25
2022-09-13T08:45:14.799Z,100339.53
2022-09-13T08:47:41.116Z,100335.72
2022-09-13T08:50:07.424Z,100338.44
2022-09-13T08:52:33.897Z,100334.91
2022-09-13T08:55:00.408Z,100332.19
2022-09-13T08:57:27.019Z,100316.19
2022-09-13T08:59:53.570Z,100310.00
2022-09-13T09:02:19.828Z,100306.44
2022-09-13T09:04:46.261Z,100302.66
2022-09-13T09:07:12.566Z,100304.56
2022-09-13T09:09:38.909Z,100301.84
2022-09-13T09:12:05.203Z,100289.09
2022-09-13T09:14:31.887Z,100294.81
2022-09-13T09:16:58.286Z,100296.44
2022-09-13T09:19:24.818Z,100285.88
2022-09-13T09:21:51.108Z,100285.03
2022-09-13T09:24:17.588Z,100294.00
2022-09-13T09:26:43.841Z,100285.88
2022-09-13T09:29:10.204Z,100294.00
2022-09-13T09:31:36.499Z,100299.41
2022-09-13T09:34:03.082Z,100285.88
2022-09-13T09:36:29.393Z,100283.41
2022-09-13T09:38:55.670Z,100284.78
2022-09-13T09:41:21.968Z,100279.63
2022-09-13T09:43:48.399Z,100285.31
2022-09-13T09:46:14.760Z,100279.09
2022-09-13T09:48:41.123Z,100279.09
2022-09-13T09:51:07.350Z,100278.81
2022-09-13T09:53:37.065Z,100285.31
2022-09-13T09:56:03.669Z,100292.38
2022-09-13T09:58:29.940Z,100290.72
2022-09-13T10:00:56.261Z,100278.28
2022-09-13T10:06:13.703Z,100280.97
2022-09-13T10:08:40.288Z,100293.75
2022-09-13T10:11:06.686Z,100291.81
2022-09-13T10:13:33.254Z,100288.31
2022-09-13T10:15:59.773Z,100272.84
2022-09-13T10:18:43.399Z,100270.41
2022-09-13T10:21:11.726Z,100275.56
2022-09-13T10:23:38.560Z,100264.72
2022-09-13T10:26:04.921Z,100265.53
2022-09-13T10:28:31.366Z,100267.44
2022-09-13T10:30:58.663Z,100260.41
2022-09-13T10:33:25.007Z,100258.50
2022-09-13T10:35:51.261Z,100268.25
2022-09-13T10:38:17.669Z,100266.34
2022-09-13T10:40:43.979Z,100267.97
2022-09-13T10:43:10.320Z,100263.34
2022-09-13T10:45:36.647Z,100264.44
2022-09-13T10:48:03.089Z,100254.44
2022-09-13T10:50:29.433Z,100257.16
2022-09-13T10:52:55.904Z,100257.94
2022-09-13T10:55:22.306Z,100257.66
2022-09-13T10:57:48.636Z,100250.38
2022-09-13T11:00:15.079Z,100246.03
2022-09-13T11:02:41.456Z,100244.13
2022-09-13T11:05:07.967Z,100251.16
2022-09-13T11:07:34.282Z,100246.56
2022-09-13T11:10:00.660Z,100243.03
2022-09-13T11:12:27.088Z,100250.09
2022-09-13T11:14:53.501Z,100244.94
2022-09-13T11:17:20.060Z,100235.72
2022-09-13T11:19:46.509Z,100244.66
2022-09-13T11:22:12.802Z,100236.53
2022-09-13T11:24:39.215Z,100240.03
2022-09-13T11:27:05.547Z,100223.00
2022-09-13T11:29:31.978Z,100228.69
2022-09-13T11:31:58.474Z,100233.00
2022-09-13T11:34:24.892Z,100226.50
2022-09-13T11:36:51.320Z,100228.41
2022-09-13T11:39:17.706Z,100221.06
2022-09-13T11:41:44.161Z,100216.47
2022-09-13T11:44:10.492Z,100214.56
2022-09-13T11:46:36.881Z,100207.25
2022-09-13T11:49:03.151Z,100209.97
2022-09-13T11:51:29.674Z,100208.34
2022-09-13T11:53:55.955Z,100212.16
2022-09-13T11:56:22.277Z,100202.38
2022-09-13T11:58:49.750Z,100217.56
2022-09-13T12:01:16.049Z,100206.72
2022-09-13T12:03:42.454Z,100216.19
2022-09-13T12:06:08.862Z,100219.72
2022-09-13T12:08:35.507Z,100219.16
2022-09-13T12:11:01.856Z,100217.53
2022-09-13T12:13:28.422Z,100214.00
2022-09-13T12:15:54.813Z,100210.22
2022-09-13T12:18:21.176Z,100205.88
2022-09-13T12:20:47.630Z,100202.91
2022-09-13T12:23:15.235Z,100208.59
2022-09-13T12:25:41.626Z,100202.06
2022-09-13T12:28:07.932Z,100195.88
2022-09-13T12:30:34.245Z,100195.31
2022-09-13T12:33:00.606Z,100204.78
2022-09-13T12:35:26.973Z,100196.13
2022-09-13T12:37:53.296Z,100198.56
2022-09-13T12:40:20.177Z,100193.69
2022-09-13T12:42:46.568Z,100195.59
2022-09-13T12:45:12.876Z,100184.75
2022-09-13T12:47:40.611Z,100188.28
2022-09-13T12:50:41.424Z,100192.59
2022-09-13T12:52:53.492Z,100198.56
2022-09-13T12:55:45.235Z,100195.31
2022-09-13T12:58:06.144Z,100196.97
2022-09-13T13:00:32.470Z,100199.94
2022-09-13T13:02:59.041Z,100186.13
2022-09-13T13:05:25.350Z,100188.28
2022-09-13T13:07:52.278Z,100194.78
2022-09-13T13:10:18.642Z,100192.06
2022-09-13T13:12:45.000Z,100189.38
2022-09-13T13:15:11.274Z,100189.38
2022-09-13T13:17:38.483Z,100185.03
2022-09-13T13:20:04.788Z,100179.06
2022-09-13T13:22:31.118Z,100174.47
2022-09-13T13:24:57.545Z,100167.97
2022-09-13T13:27:23.985Z,100172.56
2022-09-13T13:29:50.318Z,100175.25
2022-09-13T13:32:16.821Z,100160.91
2022-09-13T13:34:43.244Z,100152.78
2022-09-13T13:37:09.604Z,100156.28
2022-09-13T13:39:35.930Z,100143.03
2022-09-13T13:42:02.308Z,100154.69
2022-09-13T13:44:29.465Z,100143.84
2022-09-13T13:46:55.713Z,100132.22
2022-09-13T13:49:22.135Z,100135.44
2022-09-13T13:51:48.590Z,100127.56
2022-09-13T13:54:15.003Z,100139.25
2022-09-13T13:56:41.294Z,100131.91
2022-09-13T13:59:07.574Z,100129.19
2022-09-13T14:01:34.380Z,100131.38
2022-09-13T14:04:00.684Z,100133.81
2022-09-13T14:06:26.992Z,100137.63
2022-09-13T14:08:53.297Z,100126.78
2022-09-13T14:11:19.918Z,100129.19
2022-09-13T14:13:46.467Z,100137.88
2022-09-13T14:16:13.392Z,100132.72
2022-09-13T14:18:39.894Z,100139.25
2022-09-13T14:21:06.160Z,100128.91
2022-09-13T14:23:32.512Z,100128.41
2022-09-13T14:25:58.852Z,100133.00
2022-09-13T14:28:25.376Z,100133.81
2022-09-13T14:30:51.688Z,100132.44
2022-09-13T14:33:17.981Z,100135.72
2022-09-13T14:35:44.204Z,100136.81
2022-09-13T14:38:10.562Z,100137.91
2022-09-13T14:40:36.933Z,100140.34
2022-09-13T14:43:03.233Z,100136.25
2022-09-13T14:45:29.579Z,100135.97
2022-09-13T14:47:55.864Z,100133.53
2022-09-13T14:50:22.261Z,100133.53
2022-09-13T14:52:48.560Z,100125.41
2022-09-13T14:55:15.102Z,100128.13
2022-09-13T14:57:41.482Z,100119.19
2022-09-13T15:00:07.859Z,100113.78
2022-09-13T15:02:34.390Z,100128.94
2022-09-13T15:05:00.817Z,100128.13
2022-09-13T15:07:27.460Z,100124.34
2022-09-13T15:09:54.286Z,100128.13
2022-09-13T15:12:20.931Z,100122.19
2022-09-13T15:14:47.282Z,100131.13
2022-09-13T15:17:13.733Z,100130.31
2022-09-13T15:19:40.153Z,100121.09
2022-09-13T15:22:06.468Z,100121.09
2022-09-13T15:24:32.888Z,100119.19
2022-09-13T15:26:59.477Z,100121.34
2022-09-13T15:29:25.785Z,100120.56
2022-09-13T15:31:52.150Z,100117.84
2022-09-13T15:34:18.499Z,100116.22
2022-09-13T15:36:44.785Z,100122.72
2022-09-13T15:39:11.065Z,100125.44
2022-09-13T15:41:37.469Z,100125.16
2022-09-13T15:44:03.738Z,100130.59
2022-09-13T15:46:30.294Z,100137.88
2022-09-13T15:48:56.582Z,100127.88
2022-09-13T15:51:22.955Z,100129.50
2022-09-13T15:53:49.452Z,100123.28
2022-09-13T15:56:15.758Z,100122.44
2022-09-13T15:58:42.077Z,100114.31
2022-09-13T16:01:08.500Z,100118.91
2022-09-13T16:03:35.165Z,100114.31
2022-09-13T16:06:01.514Z,100115.16
2022-09-13T16:08:28.248Z,100114.59
2022-09-13T16:10:54.527Z,100118.91
2022-09-13T16:13:20.858Z,100125.44
2022-09-13T16:15:47.298Z,100130.06
2022-09-13T16:18:13.930Z,100127.06
2022-09-13T16:20:40.285Z,100122.72
2022-09-13T16:23:06.780Z,100126.25
2022-09-13T16:25:33.389Z,100121.63
2022-09-13T16:27:59.678Z,100111.88
2022-09-13T16:30:26.004Z,100113.50
2022-09-13T16:32:52.444Z,100121.63
2022-09-13T16:35:19.025Z,100112.72
2022-09-13T16:37:45.584Z,100111.63
2022-09-13T16:40:11.983Z,100108.38
2022-09-13T16:42:38.516Z,100110.78
2022-09-13T16:45:04.813Z,100110.00
2022-09-13T16:47:31.131Z,100110.28
2022-09-13T16:49:57.723Z,100107.56
2022-09-13T16:52:24.605Z,100112.97
2022-09-13T16:54:51.121Z,100109.44
2022-09-13T16:57:17.744Z,100112.97
2022-09-13T16:59:44.570Z,100111.91
2022-09-13T17:02:11.232Z,100118.69
2022-09-13T17:04:37.827Z,100120.06
2022-09-13T17:07:04.223Z,100110.84
2022-09-13T17:09:30.483Z,100106.50
2022-09-13T17:11:56.790Z,100105.97
2022-09-13T17:14:23.158Z,100108.13
2022-09-13T17:16:49.600Z,100114.91
2022-09-13T17:19:15.875Z,100107.59
2022-09-13T17:21:42.288Z,100104.88
2022-09-13T17:24:13.224Z,100096.75
2022-09-13T17:26:40.256Z,100102.16
2022-09-13T17:29:06.512Z,100099.97
2022-09-13T17:31:32.840Z,100101.91
2022-09-13T17:33:59.282Z,100101.06
2022-09-13T17:36:26.000Z,100101.91
2022-09-13T17:38:52.410Z,100106.22
2022-09-13T17:41:18.958Z,100099.47
2022-09-13T17:43:45.354Z,100103.78
2022-09-13T17:46:11.663Z,100101.91
2022-09-13T17:48:38.012Z,100101.91
2022-09-13T17:51:04.600Z,100105.41
2022-09-13T17:53:31.229Z,100104.34
2022-09-13T17:55:57.805Z,100106.47
2022-09-13T17:58:24.134Z,100101.59
2022-09-13T18:00:50.618Z,100104.81
2022-09-13T18:03:17.052Z,100106.44
2022-09-13T18:05:43.470Z,100109.97
2022-09-13T18:08:10.045Z,100118.94
2022-09-13T18:11:10.640Z,100115.13
2022-09-13T18:13:23.714Z,100115.13
2022-09-13T18:15:50.158Z,100114.03
2022-09-13T18:18:17.725Z,100110.22
2022-09-13T18:20:44.089Z,100112.94
2022-09-13T18:23:10.439Z,100108.34
2022-09-13T18:25:37.005Z,100109.16
2022-09-13T18:28:03.514Z,100109.16
2022-09-13T18:30:29.849Z,100107.50
2022-09-13T18:32:56.203Z,100111.31
2022-09-13T18:35:22.596Z,100108.56
2022-09-13T18:37:48.932Z,100114.53
2022-09-13T18:40:15.440Z,100113.44
2022-09-13T18:42:45.225Z,100114.53
2022-09-13T18:45:11.717Z,100119.41
2022-09-13T18:47:38.070Z,100112.09
2022-09-13T18:50:04.467Z,100109.91
2022-09-13T18:52:30.984Z,100120.75
2022-09-13T18:54:57.322Z,100121.56
2022-09-13T18:57:23.918Z,100116.13
2022-09-13T18:59:50.332Z,100123.16
2022-09-13T19:02:16.995Z,100107.44
2022-09-13T19:04:43.481Z,100117.19
2022-09-13T19:07:09.830Z,100114.50
2022-09-13T19:09:36.257Z,100117.75
2022-09-13T19:12:02.564Z,100119.38
2022-09-13T19:14:28.872Z,100128.28
2022-09-13T19:16:55.179Z,100120.97
2022-09-13T19:19:21.583Z,100120.69
2022-09-13T19:21:47.844Z,100115.56
2022-09-13T19:24:17.336Z,100111.22
2022-09-13T19:26:44.988Z,100114.47
2022-09-13T19:29:11.271Z,100119.88
2022-09-13T19:31:37.682Z,100120.69
2022-09-13T19:34:04.006Z,100121.53
2022-09-13T19:36:34.044Z,100117.75
2022-09-13T19:39:01.254Z,100113.94
2022-09-13T19:41:27.715Z,100114.19
2022-09-13T19:43:54.099Z,100116.66
2022-09-13T19:46:20.514Z,100123.69
2022-09-13T19:48:46.848Z,100122.31
2022-09-13T19:51:13.159Z,100127.50
2022-09-13T19:53:56.039Z,100127.50
2022-09-13T19:56:23.810Z,100126.66
2022-09-13T19:58:50.179Z,100125.34
2022-09-13T20:01:16.567Z,100120.69
2022-09-13T20:03:42.972Z,100118.81
2022-09-13T20:06:09.305Z,100110.69
2022-09-13T20:08:35.606Z,100115.00
2022-09-13T20:11:02.078Z,100109.59
2022-09-13T20:13:28.373Z,100112.28
2022-09-13T20:15:54.843Z,100115.00
2022-09-13T20:18:21.576Z,100116.63
2022-09-13T20:20:48.128Z,100123.66
2022-09-13T20:23:14.408Z,100114.47
2022-09-13T20:25:40.735Z,100117.97
2022-09-13T20:28:07.118Z,100114.47
2022-09-13T20:30:33.692Z,100113.34
2022-09-13T20:33:00.180Z,100109.81
2022-09-13T20:35:26.601Z,100109.81
2022-09-13T20:37:53.182Z,100113.09
2022-09-13T20:40:19.497Z,100108.44
2022-09-13T20:42:46.006Z,100110.09
2022-09-13T20:45:12.305Z,100112.81
2022-09-13T20:47:38.646Z,100110.59
2022-09-13T20:50:05.338Z,100107.91
2022-09-13T20:52:31.861Z,100106.81
2022-09-13T20:54:58.513Z,100106.81
2022-09-13T20:57:24.834Z,100108.44
2022-09-13T20:59:51.286Z,100108.97
2022-09-13T21:02:18.191Z,100110.06
2022-09-13T21:04:44.932Z,100102.97
2022-09-13T21:07:14.617Z,100098.94
2022-09-13T21:09:41.349Z,100103.81
2022-09-13T21:12:07.748Z,100102.44
2022-09-13T21:14:34.126Z,100103.78
2022-09-13T21:17:00.524Z,100113.00
2022-09-13T21:19:27.143Z,100110.84
2022-09-13T21:21:53.604Z,100107.59
2022-09-13T21:24:19.948Z,100111.63
2022-09-13T21:26:46.220Z,100117.06
2022-09-13T21:29:12.537Z,100114.34
2022-09-13T21:31:38.812Z,100110.25
2022-09-13T21:34:05.238Z,100109.47
2022-09-13T21:36:31.972Z,100107.28
2022-09-13T21:38:58.326Z,100119.75
2022-09-13T21:41:24.808Z,100121.38
2022-09-13T21:43:51.143Z,100119.19
2022-09-13T21:46:18.432Z,100120.03
2022-09-13T21:48:44.726Z,100119.47
2022-09-13T21:51:10.981Z,100114.31
2022-09-13T21:53:37.246Z,100107.00
2022-09-13T21:56:03.520Z,100116.22
2022-09-13T21:58:29.811Z,100111.91
2022-09-13T22:00:56.160Z,100110.25
2022-09-13T22:03:22.793Z,100109.75
2022-09-13T22:05:49.262Z,100114.06
2022-09-13T22:08:15.840Z,100118.16
2022-09-13T22:10:42.260Z,100120.03
2022-09-13T22:13:08.816Z,100114.09
2022-09-13T22:15:35.405Z,100108.97
2022-09-13T22:18:01.998Z,100114.38
2022-09-13T22:20:28.333Z,100113.56
2022-09-13T22:22:54.670Z,100111.16
2022-09-13T22:25:20.948Z,100110.34
2022-09-13T22:27:47.233Z,100115.75
2022-09-13T22:30:13.730Z,100120.34
2022-09-13T22:32:40.023Z,100123.38
2022-09-13T22:35:06.412Z,100126.09
2022-09-13T22:37:32.714Z,100126.38
2022-09-13T22:39:59.049Z,100122.00
2022-09-13T22:42:25.381Z,100123.09
2022-09-13T22:44:51.678Z,100129.34
2022-09-13T22:47:18.018Z,100122.59
2022-09-13T22:49:44.404Z,100126.09
2022-09-13T22:52:10.910Z,100130.72
2022-09-13T22:54:37.213Z,100129.06
2022-09-13T22:57:03.542Z,100129.06
2022-09-13T22:59:29.874Z,100136.16
2022-09-13T23:01:56.406Z,100138.31
2022-09-13T23:04:22.802Z,100135.88
2022-09-13T23:06:49.151Z,100143.72
2022-09-13T23:09:15.407Z,100142.13
2022-09-13T23:11:41.961Z,100141.28
2022-09-13T23:14:08.373Z,100140.50
2022-09-13T23:16:34.752Z,100144.31
2022-09-13T23:19:01.568Z,100145.38
2022-09-13T23:21:28.015Z,100141.59
2022-09-13T23:23:54.366Z,100142.66
2022-09-13T23:26:20.634Z,100148.09
2022-09-13T23:28:47.000Z,100147.28
2022-09-13T23:31:13.236Z,100148.09
2022-09-13T23:33:39.524Z,100147.28
2022-09-13T23:36:05.857Z,100147.56
2022-09-13T23:38:32.134Z,100147.56
2022-09-13T23:40:58.511Z,100150.28
2022-09-13T23:43:24.814Z,100147.56
2022-09-13T23:45:51.229Z,100147.56
2022-09-13T23:48:17.730Z,100143.22
2022-09-13T23:50:44.146Z,100144.28
2022-09-13T23:53:10.425Z,100138.84
2022-09-13T23:55:36.752Z,100141.56
2022-09-13T23:58:03.122Z,100143.75
